createdAt,value
2022-11-19T00:01:47.994Z,4.70
2022-11-19T00:05:29.748Z,4.60
2022-11-19T00:09:14.326Z,4.70
2022-11-19T00:12:56.088Z,4.70
2022-11-19T00:16:40.562Z,4.70
2022-11-19T00:20:22.352Z,4.60
2022-11-19T00:24:04.251Z,4.70
2022-11-19T00:27:46.245Z,4.70
2022-11-19T00:31:28.350Z,4.70
2022-11-19T00:35:10.166Z,4.70
2022-11-19T00:38:51.891Z,4.60
2022-11-19T00:42:34.416Z,4.70
2022-11-19T00:46:25.554Z,4.60
2022-11-19T00:50:07.949Z,4.60
2022-11-19T00:53:49.745Z,4.60
2022-11-19T00:57:31.473Z,4.60
2022-11-19T01:01:14.552Z,4.50
2022-11-19T01:04:56.385Z,4.60
2022-11-19T01:08:38.233Z,4.50
2022-11-19T01:12:19.998Z,4.30
2022-11-19T01:16:11.139Z,4.20
2022-11-19T01:19:53.136Z,4.10
2022-11-19T01:23:35.535Z,4.10
2022-11-19T01:27:17.596Z,4.10
2022-11-19T01:31:00.295Z,4.10
2022-11-19T01:34:42.061Z,4.10
2022-11-19T01:38:23.815Z,3.90
2022-11-19T01:42:05.767Z,3.90
2022-11-19T01:45:49.918Z,3.90
2022-11-19T01:49:31.652Z,3.80
2022-11-19T01:53:14.618Z,3.80
2022-11-19T01:57:01.669Z,3.80
2022-11-19T02:00:43.444Z,3.80
2022-11-19T02:04:26.779Z,3.80
2022-11-19T02:08:10.538Z,3.80
2022-11-19T02:12:11.164Z,3.80
2022-11-19T02:16:13.201Z,3.80
2022-11-19T02:20:22.973Z,3.80
2022-11-19T02:24:13.902Z,3.70
2022-11-19T02:28:27.862Z,3.70
2022-11-19T02:32:18.897Z,3.70
2022-11-19T02:36:14.213Z,3.70
2022-11-19T02:40:22.774Z,3.70
2022-11-19T02:44:34.947Z,3.50
2022-11-19T02:48:20.003Z,3.50
2022-11-19T02:52:03.325Z,3.50
2022-11-19T02:56:07.710Z,3.50
2022-11-19T03:00:17.162Z,3.50
2022-11-19T03:04:17.690Z,3.40
2022-11-19T03:07:59.681Z,3.40
2022-11-19T03:11:48.241Z,3.30
2022-11-19T03:16:04.125Z,3.20
2022-11-19T03:20:18.561Z,3.20
2022-11-19T03:24:11.057Z,3.20
2022-11-19T03:27:59.130Z,3.20
2022-11-19T03:31:47.892Z,3.10
2022-11-19T03:35:37.478Z,3.10
2022-11-19T03:39:21.518Z,3.20
2022-11-19T03:43:08.229Z,3.10
2022-11-19T03:46:55.863Z,3.10
2022-11-19T03:50:49.542Z,3.00
2022-11-19T03:54:31.333Z,3.00
2022-11-19T03:58:13.361Z,3.00
2022-11-19T04:01:58.608Z,3.00
2022-11-19T04:05:40.351Z,3.00
2022-11-19T04:09:22.377Z,3.00
2022-11-19T04:13:04.271Z,3.10
2022-11-19T04:16:46.751Z,3.10
2022-11-19T04:20:28.545Z,3.20
2022-11-19T04:24:10.784Z,3.20
2022-11-19T04:27:52.561Z,3.20
2022-11-19T04:31:34.354Z,3.20
2022-11-19T04:35:18.204Z,3.10
2022-11-19T04:39:00.057Z,3.20
2022-11-19T04:42:41.890Z,3.10
2022-11-19T04:46:23.622Z,3.20
2022-11-19T04:50:05.725Z,3.10
2022-11-19T04:53:47.461Z,3.10
2022-11-19T04:57:29.202Z,3.10
2022-11-19T05:01:11.087Z,3.10
2022-11-19T05:04:52.890Z,3.10
2022-11-19T05:08:34.642Z,3.00
2022-11-19T05:12:16.445Z,3.00
2022-11-19T05:15:58.209Z,3.00
2022-11-19T05:19:39.961Z,3.00
2022-11-19T05:23:21.724Z,2.90
2022-11-19T05:27:03.662Z,2.90
2022-11-19T05:30:45.390Z,2.90
2022-11-19T05:34:27.122Z,2.90
2022-11-19T05:38:08.827Z,2.90
2022-11-19T05:41:50.729Z,2.90
2022-11-19T05:45:32.800Z,2.90
2022-11-19T05:49:14.598Z,2.90
2022-11-19T05:52:58.150Z,2.90
2022-11-19T05:56:39.882Z,2.90
2022-11-19T06:00:21.844Z,2.90
2022-11-19T06:04:03.620Z,2.90
2022-11-19T06:07:45.371Z,2.80
2022-11-19T06:11:45.497Z,2.80
2022-11-19T06:15:27.243Z,2.80
2022-11-19T06:19:09.687Z,2.70
2022-11-19T06:22:52.097Z,2.70
2022-11-19T06:26:33.872Z,2.60
2022-11-19T06:30:16.266Z,2.60
2022-11-19T06:33:58.293Z,2.60
2022-11-19T06:37:40.015Z,2.60
2022-11-19T06:41:21.930Z,2.50
2022-11-19T06:45:14.063Z,2.50
2022-11-19T06:48:55.801Z,2.60
2022-11-19T06:52:37.896Z,2.60
2022-11-19T06:56:19.875Z,2.50
2022-11-19T07:00:01.669Z,2.50
2022-11-19T07:03:43.413Z,2.50
2022-11-19T07:07:25.213Z,2.50
2022-11-19T07:11:33.115Z,2.50
2022-11-19T07:15:14.863Z,2.50
2022-11-19T07:18:58.670Z,2.50
2022-11-19T07:22:41.809Z,2.50
2022-11-19T07:26:23.916Z,2.50
2022-11-19T07:30:07.432Z,2.50
2022-11-19T07:33:49.126Z,2.60
2022-11-19T07:37:30.861Z,2.50
2022-11-19T07:41:31.585Z,2.60
2022-11-19T07:45:13.346Z,2.50
2022-11-19T07:48:57.698Z,2.50
2022-11-19T07:52:39.826Z,2.50
2022-11-19T07:56:21.640Z,2.50
2022-11-19T08:00:05.967Z,2.50
2022-11-19T08:03:54.899Z,2.50
2022-11-19T08:07:38.584Z,2.40
2022-11-19T08:11:20.442Z,2.40
2022-11-19T08:15:02.666Z,2.50
2022-11-19T08:18:45.095Z,2.50
2022-11-19T08:22:26.822Z,2.60
2022-11-19T08:26:08.869Z,2.50
2022-11-19T08:29:50.625Z,2.60
2022-11-19T08:33:32.339Z,2.60
2022-11-19T08:37:14.134Z,2.60
2022-11-19T08:41:16.094Z,2.70
2022-11-19T08:44:58.792Z,2.70
2022-11-19T08:48:40.533Z,2.70
2022-11-19T08:52:22.288Z,2.80
2022-11-19T08:56:05.306Z,2.90
2022-11-19T08:59:47.049Z,3.00
2022-11-19T09:03:28.791Z,3.10
2022-11-19T09:07:10.626Z,3.20
2022-11-19T09:10:52.437Z,3.40
2022-11-19T09:14:34.151Z,3.50
2022-11-19T09:18:16.061Z,3.50
2022-11-19T09:21:57.802Z,3.60
2022-11-19T09:25:39.572Z,3.60
2022-11-19T09:29:21.377Z,3.80
2022-11-19T09:33:03.069Z,4.10
2022-11-19T09:36:44.785Z,4.60
2022-11-19T09:40:26.507Z,5.40
2022-11-19T09:44:08.205Z,6.30
2022-11-19T09:48:22.085Z,7.40
2022-11-19T09:52:12.126Z,8.60
2022-11-19T09:55:54.248Z,9.70
2022-11-19T09:59:40.486Z,10.60
2022-11-19T10:03:27.375Z,11.20
2022-11-19T10:07:28.598Z,11.80
2022-11-19T10:11:35.406Z,12.50
2022-11-19T10:15:26.009Z,13.20
2022-11-19T10:19:39.882Z,13.90
2022-11-19T10:23:40.249Z,14.30
2022-11-19T10:27:39.654Z,14.10
2022-11-19T10:31:29.163Z,13.80
2022-11-19T10:35:22.044Z,13.60
2022-11-19T10:39:15.028Z,13.20
2022-11-19T10:43:26.553Z,12.90
2022-11-19T10:47:22.401Z,12.80
2022-11-19T10:51:30.854Z,12.80
2022-11-19T10:55:17.633Z,12.60
2022-11-19T10:59:18.523Z,12.50
2022-11-19T11:03:03.132Z,12.60
2022-11-19T11:06:56.583Z,12.50
2022-11-19T11:10:45.483Z,12.50
2022-11-19T11:14:45.759Z,12.10
2022-11-19T11:18:31.355Z,11.80
2022-11-19T11:22:13.186Z,11.60
2022-11-19T11:26:01.033Z,11.50
2022-11-19T11:29:42.817Z,11.30
2022-11-19T11:33:24.492Z,11.20
2022-11-19T11:37:08.840Z,11.00
2022-11-19T11:41:56.418Z,11.00
2022-11-19T11:45:33.965Z,11.00
2022-11-19T11:49:37.266Z,11.00
2022-11-19T11:53:32.439Z,11.10
2022-11-19T11:57:20.353Z,11.00
2022-11-19T12:01:16.163Z,10.90
2022-11-19T12:05:07.091Z,10.80
2022-11-19T12:09:23.533Z,10.80
2022-11-19T12:13:42.294Z,10.70
2022-11-19T12:17:49.939Z,10.70
2022-11-19T12:21:47.061Z,10.70
2022-11-19T12:25:40.758Z,10.90
2022-11-19T12:29:47.209Z,11.00
2022-11-19T12:33:50.383Z,10.90
2022-11-19T12:38:11.786Z,10.90
2022-11-19T12:42:22.721Z,10.80
2022-11-19T12:46:09.994Z,10.70
2022-11-19T12:50:11.187Z,10.70
2022-11-19T12:54:01.857Z,10.70
2022-11-19T12:58:23.440Z,10.80
2022-11-19T13:02:29.853Z,10.90
2022-11-19T13:06:26.154Z,11.00
2022-11-19T13:10:39.902Z,11.10
2022-11-19T13:14:49.513Z,11.10
2022-11-19T13:18:38.069Z,11.10
2022-11-19T13:22:42.597Z,11.10
2022-11-19T13:26:29.297Z,11.00
2022-11-19T13:30:22.117Z,10.80
2022-11-19T13:34:25.525Z,10.70
2022-11-19T13:38:35.303Z,10.80
2022-11-19T13:42:37.225Z,10.70
2022-11-19T13:46:43.333Z,10.80
2022-11-19T13:50:42.800Z,11.00
2022-11-19T13:54:39.832Z,11.10
2022-11-19T13:58:21.482Z,11.10
2022-11-19T14:02:08.929Z,11.30
2022-11-19T14:06:14.964Z,11.30
2022-11-19T14:10:19.232Z,11.20
2022-11-19T14:14:37.769Z,11.20
2022-11-19T14:18:38.172Z,11.20
2022-11-19T14:23:15.171Z,11.10
2022-11-19T14:27:01.235Z,11.00
2022-11-19T14:31:04.115Z,11.00
2022-11-19T14:34:46.153Z,11.00
2022-11-19T14:38:37.634Z,10.90
2022-11-19T14:42:22.252Z,10.80
2022-11-19T14:46:09.115Z,10.80
2022-11-19T14:49:52.753Z,10.80
2022-11-19T14:53:49.010Z,10.90
2022-11-19T14:57:33.582Z,10.90
2022-11-19T15:01:21.480Z,11.00
2022-11-19T15:05:19.859Z,10.90
2022-11-19T15:09:02.211Z,10.90
2022-11-19T15:12:43.873Z,10.80
2022-11-19T15:16:27.314Z,10.80
2022-11-19T15:20:22.857Z,10.70
2022-11-19T15:24:21.038Z,10.60
2022-11-19T15:28:15.524Z,10.50
2022-11-19T15:32:12.041Z,10.40
2022-11-19T15:36:31.967Z,10.20
2022-11-19T15:40:19.465Z,10.10
2022-11-19T15:44:06.921Z,9.90
2022-11-19T15:47:53.564Z,9.80
2022-11-19T15:51:58.791Z,9.80
2022-11-19T15:55:52.029Z,9.70
2022-11-19T15:59:38.207Z,9.70
2022-11-19T16:03:20.990Z,9.50
2022-11-19T16:07:05.312Z,9.50
2022-11-19T16:10:47.434Z,9.40
2022-11-19T16:14:48.744Z,9.30
2022-11-19T16:18:30.591Z,9.20
2022-11-19T16:22:13.209Z,9.00
2022-11-19T16:25:55.071Z,9.00
2022-11-19T16:29:40.867Z,8.90
2022-11-19T16:33:27.696Z,8.80
2022-11-19T16:37:14.058Z,8.80
2022-11-19T16:41:15.630Z,8.70
2022-11-19T16:45:14.481Z,8.70
2022-11-19T16:48:58.024Z,8.60
2022-11-19T16:52:42.775Z,8.60
2022-11-19T16:56:25.518Z,8.60
2022-11-19T17:00:17.193Z,8.50
2022-11-19T17:04:07.451Z,8.40
2022-11-19T17:07:51.336Z,8.40
2022-11-19T17:12:10.230Z,8.40
2022-11-19T17:15:52.229Z,8.30
2022-11-19T17:19:35.496Z,8.30
2022-11-19T17:23:22.956Z,8.20
2022-11-19T17:27:04.763Z,8.10
2022-11-19T17:30:49.460Z,8.10
2022-11-19T17:34:33.800Z,8.00
2022-11-19T17:38:29.924Z,8.00
2022-11-19T17:42:30.427Z,8.00
2022-11-19T17:46:12.202Z,8.00
2022-11-19T17:49:54.410Z,7.90
2022-11-19T17:53:36.123Z,7.90
2022-11-19T17:57:17.875Z,7.80
2022-11-19T18:00:59.637Z,7.80
2022-11-19T18:04:45.783Z,7.70
2022-11-19T18:08:27.482Z,7.70
2022-11-19T18:12:15.980Z,7.60
2022-11-19T18:15:58.039Z,7.50
2022-11-19T18:19:40.196Z,7.50
2022-11-19T18:23:21.906Z,7.40
2022-11-19T18:27:03.672Z,7.40
2022-11-19T18:30:45.625Z,7.40
2022-11-19T18:34:27.361Z,7.40
2022-11-19T18:38:09.062Z,7.40
2022-11-19T18:41:51.322Z,7.40
2022-11-19T18:45:33.054Z,7.40
2022-11-19T18:49:14.752Z,7.40
2022-11-19T18:52:56.488Z,7.30
2022-11-19T18:56:38.423Z,7.40
2022-11-19T19:00:20.237Z,7.40
2022-11-19T19:04:02.230Z,7.40
2022-11-19T19:07:44.071Z,7.40
2022-11-19T19:11:44.449Z,7.30
2022-11-19T19:15:26.267Z,7.30
2022-11-19T19:19:11.321Z,7.30
2022-11-19T19:22:53.045Z,7.30
2022-11-19T19:26:34.772Z,7.20
2022-11-19T19:30:16.538Z,7.20
2022-11-19T19:33:58.576Z,7.10
2022-11-19T19:37:41.844Z,7.10
2022-11-19T19:41:28.381Z,7.10
2022-11-19T19:45:10.572Z,7.10
2022-11-19T19:48:54.134Z,7.10
2022-11-19T19:52:35.838Z,7.10
2022-11-19T19:56:23.262Z,7.10
2022-11-19T20:00:05.578Z,7.10
2022-11-19T20:03:51.753Z,7.10
2022-11-19T20:07:36.130Z,7.10
2022-11-19T20:11:20.150Z,7.10
2022-11-19T20:15:01.878Z,7.10
2022-11-19T20:18:43.931Z,7.20
2022-11-19T20:22:25.687Z,7.20
2022-11-19T20:26:29.485Z,7.20
2022-11-19T20:30:11.867Z,7.20
2022-11-19T20:33:58.931Z,7.20
2022-11-19T20:37:41.666Z,7.20
2022-11-19T20:41:42.338Z,7.20
2022-11-19T20:45:24.049Z,7.20
2022-11-19T20:49:06.501Z,7.20
2022-11-19T20:52:48.292Z,7.20
2022-11-19T20:56:30.405Z,7.20
2022-11-19T21:00:12.875Z,7.20
2022-11-19T21:03:54.602Z,7.20
2022-11-19T21:07:36.418Z,7.20
2022-11-19T21:11:18.196Z,7.20
2022-11-19T21:15:00.108Z,7.20
2022-11-19T21:18:42.793Z,7.20
2022-11-19T21:22:24.550Z,7.20
2022-11-19T21:26:11.501Z,7.20
2022-11-19T21:29:53.205Z,7.20
2022-11-19T21:33:35.037Z,7.30
2022-11-19T21:37:16.769Z,7.20
2022-11-19T21:40:58.793Z,7.30
2022-11-19T21:44:40.618Z,7.30
2022-11-19T21:48:23.010Z,7.30
2022-11-19T21:52:04.781Z,7.30
2022-11-19T21:55:47.132Z,7.40
2022-11-19T21:59:28.874Z,7.40
2022-11-19T22:03:10.754Z,7.40
2022-11-19T22:06:52.539Z,7.50
2022-11-19T22:10:34.262Z,7.40
2022-11-19T22:14:16.012Z,7.40
2022-11-19T22:17:57.838Z,7.50
2022-11-19T22:21:40.451Z,7.50
2022-11-19T22:25:22.176Z,7.50
2022-11-19T22:29:03.966Z,7.50
2022-11-19T22:32:45.680Z,7.50
2022-11-19T22:36:30.852Z,7.40
2022-11-19T22:40:13.056Z,7.50
2022-11-19T22:43:54.938Z,7.50
2022-11-19T22:47:36.649Z,7.50
2022-11-19T22:51:23.458Z,7.50
2022-11-19T22:55:05.634Z,7.50
2022-11-19T22:58:48.169Z,7.50
2022-11-19T23:02:29.925Z,7.60
2022-11-19T23:06:11.649Z,7.50
2022-11-19T23:09:53.374Z,7.60
2022-11-19T23:13:39.014Z,7.60
2022-11-19T23:17:20.897Z,7.60
2022-11-19T23:21:09.654Z,7.70
2022-11-19T23:24:51.406Z,7.70
2022-11-19T23:28:35.203Z,7.70
2022-11-19T23:32:16.901Z,7.70
2022-11-19T23:36:07.842Z,7.80
2022-11-19T23:39:49.615Z,7.80
2022-11-19T23:43:32.342Z,7.90
2022-11-19T23:47:14.182Z,7.90
2022-11-19T23:50:55.875Z,7.90
2022-11-19T23:54:37.607Z,7.90
2022-11-19T23:58:19.418Z,7.90
